createdAt,value
2022-11-09T00:01:02.632Z,82.31
2022-11-09T00:04:06.633Z,82.59
2022-11-09T00:07:10.506Z,83.03
2022-11-09T00:10:13.134Z,83.55
2022-11-09T00:13:15.787Z,82.94
2022-11-09T00:16:20.157Z,83.02
2022-11-09T00:19:22.649Z,82.76
2022-11-09T00:22:26.489Z,83.37
2022-11-09T00:25:29.001Z,83.71
2022-11-09T00:28:31.675Z,83.69
2022-11-09T00:31:34.181Z,83.88
2022-11-09T00:34:36.680Z,83.80
2022-11-09T00:37:40.571Z,84.00
2022-11-09T00:40:43.068Z,83.11
2022-11-09T00:43:45.705Z,84.13
2022-11-09T00:46:48.347Z,83.83
2022-11-09T00:49:50.847Z,83.22
2022-11-09T00:52:54.718Z,84.57
2022-11-09T00:55:58.315Z,83.87
2022-11-09T00:59:00.804Z,84.34
2022-11-09T01:02:03.307Z,83.79
2022-11-09T01:05:06.630Z,84.14
2022-11-09T01:08:10.647Z,84.74
2022-11-09T01:11:14.125Z,84.71
2022-11-09T01:14:16.683Z,84.76
2022-11-09T01:17:19.213Z,85.42
2022-11-09T01:20:21.894Z,85.29
2022-11-09T01:23:25.743Z,85.28
2022-11-09T01:26:28.555Z,85.37
2022-11-09T01:29:31.068Z,86.26
2022-11-09T01:32:33.923Z,85.82
2022-11-09T01:35:38.218Z,85.12
2022-11-09T01:38:42.200Z,85.36
2022-11-09T01:41:44.759Z,85.85
2022-11-09T01:44:47.235Z,86.45
2022-11-09T01:47:53.714Z,86.07
2022-11-09T01:51:00.282Z,86.75
2022-11-09T01:54:07.795Z,85.81
2022-11-09T01:57:13.970Z,85.58
2022-11-09T02:00:18.588Z,86.06
2022-11-09T02:03:26.283Z,86.22
2022-11-09T02:06:31.407Z,86.16
2022-11-09T02:09:41.815Z,86.49
2022-11-09T02:12:45.695Z,87.75
2022-11-09T02:15:49.604Z,86.95
2022-11-09T02:18:54.064Z,87.91
2022-11-09T02:21:58.363Z,87.70
2022-11-09T02:25:00.918Z,87.11
2022-11-09T02:28:03.706Z,87.26
2022-11-09T02:31:09.154Z,86.19
2022-11-09T02:34:15.333Z,86.34
2022-11-09T02:37:27.668Z,86.65
2022-11-09T02:40:36.535Z,86.97
2022-11-09T02:43:39.027Z,86.15
2022-11-09T02:46:41.535Z,87.14
2022-11-09T02:49:44.080Z,85.86
2022-11-09T02:52:47.953Z,86.49
2022-11-09T02:55:50.444Z,85.64
2022-11-09T02:58:52.972Z,86.17
2022-11-09T03:01:55.472Z,87.34
2022-11-09T03:04:57.963Z,87.11
2022-11-09T03:08:02.360Z,86.44
2022-11-09T03:11:06.065Z,86.26
2022-11-09T03:14:09.702Z,86.36
2022-11-09T03:17:14.008Z,86.30
2022-11-09T03:20:16.597Z,87.38
2022-11-09T03:23:20.687Z,86.87
2022-11-09T03:26:23.966Z,86.74
2022-11-09T03:29:26.478Z,86.95
2022-11-09T03:32:28.969Z,87.57
2022-11-09T03:35:31.544Z,87.41
2022-11-09T03:38:35.392Z,87.47
2022-11-09T03:41:37.869Z,87.65
2022-11-09T03:44:40.369Z,87.04
2022-11-09T03:47:43.091Z,88.30
2022-11-09T03:50:45.708Z,88.39
2022-11-09T03:53:49.551Z,88.43
2022-11-09T03:56:52.072Z,88.21
2022-11-09T03:59:54.574Z,88.00
2022-11-09T04:02:57.354Z,88.58
2022-11-09T04:05:59.948Z,89.17
2022-11-09T04:09:04.253Z,89.04
2022-11-09T04:12:06.945Z,88.28
2022-11-09T04:15:10.189Z,89.05
2022-11-09T04:18:15.315Z,89.17
2022-11-09T04:21:22.761Z,89.36
2022-11-09T04:24:27.660Z,89.66
2022-11-09T04:27:30.579Z,90.09
2022-11-09T04:30:35.321Z,89.49
2022-11-09T04:33:37.812Z,88.79
2022-11-09T04:36:40.329Z,88.99
2022-11-09T04:39:44.160Z,89.21
2022-11-09T04:42:46.697Z,89.35
2022-11-09T04:45:49.197Z,88.23
2022-11-09T04:48:51.756Z,89.25
2022-11-09T04:51:54.232Z,88.86
2022-11-09T04:54:58.069Z,89.63
2022-11-09T04:58:00.600Z,89.07
2022-11-09T05:01:04.279Z,88.84
2022-11-09T05:04:06.827Z,89.68
2022-11-09T05:07:09.414Z,89.32
2022-11-09T05:10:13.285Z,89.41
2022-11-09T05:13:16.650Z,90.01
2022-11-09T05:16:19.732Z,89.79
2022-11-09T05:19:22.248Z,91.26
2022-11-09T05:22:42.314Z,90.61
2022-11-09T05:25:46.581Z,90.27
2022-11-09T05:28:49.089Z,90.05
2022-11-09T05:31:52.605Z,89.82
2022-11-09T05:34:55.162Z,89.36
2022-11-09T05:37:57.671Z,89.39
2022-11-09T05:41:01.534Z,88.82
2022-11-09T05:44:04.095Z,89.42
2022-11-09T05:47:06.655Z,90.24
2022-11-09T05:50:11.558Z,89.89
2022-11-09T05:53:14.094Z,89.39
2022-11-09T05:56:17.973Z,89.69
2022-11-09T05:59:20.456Z,88.95
2022-11-09T06:02:23.358Z,90.26
2022-11-09T06:05:25.890Z,89.59
2022-11-09T06:08:28.488Z,88.97
2022-11-09T06:11:32.300Z,90.06
2022-11-09T06:14:34.814Z,89.71
2022-11-09T06:17:37.316Z,89.37
2022-11-09T06:20:39.808Z,89.94
2022-11-09T06:23:42.350Z,89.61
2022-11-09T06:26:46.295Z,89.77
2022-11-09T06:29:48.778Z,90.14
2022-11-09T06:32:51.291Z,90.85
2022-11-09T06:35:56.512Z,89.88
2022-11-09T06:38:59.227Z,90.26
2022-11-09T06:42:03.191Z,90.55
2022-11-09T06:45:06.284Z,90.81
2022-11-09T06:48:10.567Z,91.04
2022-11-09T06:51:13.116Z,90.45
2022-11-09T06:54:15.628Z,89.81
2022-11-09T06:57:19.524Z,90.22
2022-11-09T07:00:22.923Z,90.30
2022-11-09T07:03:25.596Z,90.67
2022-11-09T07:06:28.154Z,90.34
2022-11-09T07:09:30.691Z,91.22
2022-11-09T07:12:35.593Z,90.50
2022-11-09T07:15:39.323Z,91.00
2022-11-09T07:18:41.829Z,91.57
2022-11-09T07:21:44.351Z,90.58
2022-11-09T07:24:47.004Z,90.79
2022-11-09T07:27:51.726Z,89.94
2022-11-09T07:30:54.400Z,91.54
2022-11-09T07:33:58.298Z,91.73
2022-11-09T07:37:00.891Z,91.33
2022-11-09T07:40:03.714Z,91.85
2022-11-09T07:43:07.843Z,91.35
2022-11-09T07:46:10.345Z,91.39
2022-11-09T07:49:13.812Z,91.04
2022-11-09T07:52:16.338Z,90.23
2022-11-09T07:55:18.868Z,91.17
2022-11-09T07:58:22.689Z,91.61
2022-11-09T08:01:25.221Z,91.70
2022-11-09T08:04:27.905Z,91.59
2022-11-09T08:07:30.548Z,91.15
2022-11-09T08:10:34.544Z,91.54
2022-11-09T08:13:38.516Z,91.46
2022-11-09T08:16:41.075Z,91.72
2022-11-09T08:19:43.594Z,91.70
2022-11-09T08:22:47.212Z,91.51
2022-11-09T08:25:50.217Z,92.11
2022-11-09T08:28:54.058Z,92.56
2022-11-09T08:31:56.592Z,91.72
2022-11-09T08:34:59.097Z,93.00
2022-11-09T08:38:03.238Z,92.04
2022-11-09T08:41:10.591Z,92.14
2022-11-09T08:44:16.979Z,92.39
2022-11-09T08:47:19.509Z,90.96
2022-11-09T08:50:22.011Z,92.31
2022-11-09T08:53:25.036Z,92.42
2022-11-09T08:56:27.539Z,92.47
2022-11-09T08:59:31.379Z,91.34
2022-11-09T09:02:33.973Z,92.49
2022-11-09T09:05:37.484Z,92.04
2022-11-09T09:08:39.995Z,92.64
2022-11-09T09:11:42.642Z,92.31
2022-11-09T09:14:46.667Z,92.46
2022-11-09T09:17:49.340Z,92.97
2022-11-09T09:20:51.863Z,93.86
2022-11-09T09:23:55.326Z,92.37
2022-11-09T09:26:57.805Z,91.09
2022-11-09T09:30:01.713Z,90.61
2022-11-09T09:33:04.243Z,90.44
2022-11-09T09:36:07.167Z,89.00
2022-11-09T09:39:09.821Z,89.96
2022-11-09T09:42:17.320Z,89.14
2022-11-09T09:45:24.751Z,87.56
2022-11-09T09:48:46.255Z,86.44
2022-11-09T09:51:53.451Z,85.38
2022-11-09T09:55:01.445Z,84.09
2022-11-09T09:58:07.684Z,85.08
2022-11-09T10:01:17.083Z,84.97
2022-11-09T10:04:22.562Z,84.57
2022-11-09T10:07:30.680Z,85.25
2022-11-09T10:10:44.380Z,84.18
2022-11-09T10:14:10.813Z,83.90
2022-11-09T10:17:23.997Z,82.89
2022-11-09T10:20:41.052Z,82.73
2022-11-09T10:24:01.223Z,81.38
2022-11-09T10:27:18.800Z,81.70
2022-11-09T10:30:23.080Z,77.98
2022-11-09T10:33:29.202Z,75.83
2022-11-09T10:36:34.611Z,76.47
2022-11-09T10:39:43.249Z,75.55
2022-11-09T10:42:49.987Z,71.92
2022-11-09T10:46:01.051Z,68.10
2022-11-09T10:49:20.774Z,61.52
2022-11-09T10:52:43.033Z,61.50
2022-11-09T10:55:54.711Z,55.90
2022-11-09T10:58:57.260Z,58.80
2022-11-09T11:02:02.403Z,59.45
2022-11-09T11:05:29.142Z,65.30
2022-11-09T11:08:38.679Z,69.19
2022-11-09T11:11:41.280Z,66.35
2022-11-09T11:14:45.744Z,61.68
2022-11-09T11:17:48.553Z,58.36
2022-11-09T11:21:17.467Z,57.42
2022-11-09T11:24:21.787Z,59.15
2022-11-09T11:27:29.739Z,63.87
2022-11-09T11:30:36.132Z,67.32
2022-11-09T11:33:38.632Z,67.43
2022-11-09T11:36:56.330Z,67.16
2022-11-09T11:40:02.810Z,68.82
2022-11-09T11:43:23.743Z,69.67
2022-11-09T11:46:33.869Z,69.34
2022-11-09T11:50:02.225Z,68.49
2022-11-09T11:53:14.253Z,68.71
2022-11-09T11:56:24.027Z,68.21
2022-11-09T11:59:55.754Z,68.94
2022-11-09T12:03:16.301Z,67.41
2022-11-09T12:06:33.175Z,66.47
2022-11-09T12:10:01.248Z,65.63
2022-11-09T12:13:12.106Z,65.14
2022-11-09T12:16:25.719Z,67.63
2022-11-09T12:19:57.034Z,68.22
2022-11-09T12:23:17.002Z,68.17
2022-11-09T12:26:33.821Z,68.24
2022-11-09T12:29:40.870Z,68.54
2022-11-09T12:32:52.191Z,69.61
2022-11-09T12:35:59.354Z,69.13
2022-11-09T12:39:11.925Z,67.44
2022-11-09T12:42:21.249Z,65.51
2022-11-09T12:45:28.879Z,65.79
2022-11-09T12:48:34.621Z,63.69
2022-11-09T12:51:38.460Z,63.14
2022-11-09T12:54:45.046Z,61.91
2022-11-09T12:57:49.387Z,59.57
2022-11-09T13:00:55.457Z,57.83
2022-11-09T13:03:59.791Z,55.24
2022-11-09T13:07:29.052Z,50.83
2022-11-09T13:10:34.356Z,49.06
2022-11-09T13:13:38.444Z,50.34
2022-11-09T13:16:41.080Z,52.16
2022-11-09T13:19:52.330Z,52.17
2022-11-09T13:23:00.654Z,53.05
2022-11-09T13:26:04.362Z,53.16
2022-11-09T13:29:23.597Z,49.96
2022-11-09T13:32:28.003Z,50.76
2022-11-09T13:36:00.085Z,50.56
2022-11-09T13:39:32.026Z,50.30
2022-11-09T13:42:37.060Z,53.71
2022-11-09T13:45:44.267Z,51.98
2022-11-09T13:48:48.413Z,54.42
2022-11-09T13:51:51.089Z,58.41
2022-11-09T13:54:55.197Z,60.49
2022-11-09T13:58:03.269Z,62.34
2022-11-09T14:01:07.273Z,63.67
2022-11-09T14:04:21.425Z,65.36
2022-11-09T14:07:27.135Z,66.28
2022-11-09T14:10:45.101Z,66.83
2022-11-09T14:14:09.410Z,65.52
2022-11-09T14:17:21.659Z,67.58
2022-11-09T14:20:32.329Z,68.07
2022-11-09T14:23:35.635Z,70.25
2022-11-09T14:26:38.296Z,70.44
2022-11-09T14:29:50.442Z,70.71
2022-11-09T14:32:56.234Z,70.60
2022-11-09T14:36:01.180Z,70.87
2022-11-09T14:39:07.248Z,71.91
2022-11-09T14:42:18.372Z,71.79
2022-11-09T14:45:21.764Z,72.50
2022-11-09T14:48:26.558Z,73.14
2022-11-09T14:51:36.462Z,73.18
2022-11-09T14:54:44.817Z,73.15
2022-11-09T14:57:49.697Z,73.80
2022-11-09T15:01:09.776Z,74.70
2022-11-09T15:04:16.873Z,74.85
2022-11-09T15:07:23.609Z,74.20
2022-11-09T15:10:29.549Z,74.91
2022-11-09T15:13:34.940Z,74.76
2022-11-09T15:16:37.574Z,75.52
2022-11-09T15:19:51.310Z,75.50
2022-11-09T15:22:55.958Z,77.31
2022-11-09T15:25:58.560Z,75.70
2022-11-09T15:29:01.372Z,75.55
2022-11-09T15:32:14.046Z,75.65
2022-11-09T15:35:19.266Z,76.83
2022-11-09T15:38:31.019Z,75.34
2022-11-09T15:41:33.660Z,76.02
2022-11-09T15:44:37.547Z,76.74
2022-11-09T15:47:40.351Z,76.56
2022-11-09T15:50:45.449Z,76.46
2022-11-09T15:53:48.089Z,77.27
2022-11-09T15:56:51.886Z,76.36
2022-11-09T15:59:54.595Z,77.04
2022-11-09T16:02:57.243Z,77.57
2022-11-09T16:06:01.182Z,76.80
2022-11-09T16:09:03.995Z,76.62
2022-11-09T16:12:07.155Z,76.34
2022-11-09T16:15:10.561Z,76.41
2022-11-09T16:18:13.509Z,76.61
2022-11-09T16:21:18.414Z,76.43
2022-11-09T16:24:21.185Z,76.19
2022-11-09T16:27:51.717Z,76.81
2022-11-09T16:30:47.079Z,75.72
2022-11-09T16:33:49.934Z,76.95
2022-11-09T16:36:56.864Z,77.39
2022-11-09T16:40:00.562Z,77.43
2022-11-09T16:43:03.260Z,76.68
2022-11-09T16:46:06.357Z,76.72
2022-11-09T16:49:09.042Z,76.24
2022-11-09T16:52:13.099Z,76.81
2022-11-09T16:55:15.882Z,76.17
2022-11-09T16:58:18.924Z,76.72
2022-11-09T17:01:23.736Z,76.70
2022-11-09T17:04:27.292Z,78.04
2022-11-09T17:07:41.979Z,78.34
2022-11-09T17:10:47.968Z,85.35
2022-11-09T17:13:56.038Z,88.91
2022-11-09T17:16:58.733Z,93.94
2022-11-09T17:20:04.906Z,99.17
2022-11-09T17:23:09.106Z,100.00
2022-11-09T17:26:12.438Z,100.00
2022-11-09T17:29:15.081Z,100.00
2022-11-09T17:32:22.346Z,100.00
2022-11-09T17:35:25.323Z,100.00
2022-11-09T17:38:29.990Z,100.00
2022-11-09T17:41:32.649Z,100.00
2022-11-09T17:44:35.428Z,100.00
2022-11-09T17:47:38.088Z,100.00
2022-11-09T17:50:40.700Z,100.00
2022-11-09T17:53:45.425Z,100.00
2022-11-09T17:56:48.078Z,100.00
2022-11-09T17:59:50.737Z,100.00
2022-11-09T18:02:55.468Z,100.00
2022-11-09T18:05:58.118Z,100.00
2022-11-09T18:12:24.877Z,100.00
2022-11-09T18:15:27.502Z,100.00
2022-11-09T18:18:30.203Z,100.00
2022-11-09T18:21:33.447Z,98.15
2022-11-09T18:24:37.488Z,98.86
2022-11-09T18:27:40.126Z,98.49
2022-11-09T18:30:42.737Z,100.00
2022-11-09T18:33:45.375Z,98.76
2022-11-09T18:36:47.998Z,100.00
2022-11-09T18:39:51.963Z,100.00
2022-11-09T18:42:54.566Z,98.04
2022-11-09T18:45:58.586Z,94.43
2022-11-09T18:49:01.237Z,95.49
2022-11-09T18:52:03.881Z,96.59
2022-11-09T18:55:08.924Z,97.66
2022-11-09T18:58:11.689Z,97.03
2022-11-09T19:01:14.983Z,95.45
2022-11-09T19:04:18.276Z,95.18
2022-11-09T19:07:21.147Z,94.32
2022-11-09T19:10:25.131Z,93.50
2022-11-09T19:13:27.781Z,94.33
2022-11-09T19:16:33.901Z,93.42
2022-11-09T19:19:36.527Z,91.23
2022-11-09T19:22:39.223Z,91.38
2022-11-09T19:25:43.227Z,92.11
2022-11-09T19:28:45.892Z,91.09
2022-11-09T19:31:48.939Z,90.64
2022-11-09T19:34:51.641Z,90.45
2022-11-09T19:37:54.258Z,91.25
2022-11-09T19:40:58.446Z,91.33
2022-11-09T19:44:01.119Z,91.72
2022-11-09T19:47:03.755Z,91.93
2022-11-09T19:50:07.599Z,91.40
2022-11-09T19:53:10.221Z,92.76
2022-11-09T19:56:14.293Z,92.76
2022-11-09T19:59:18.578Z,92.16
2022-11-09T20:02:21.270Z,93.74
2022-11-09T20:05:23.893Z,92.67
2022-11-09T20:08:26.871Z,94.00
2022-11-09T20:11:48.737Z,94.28
2022-11-09T20:14:51.377Z,93.25
2022-11-09T20:17:53.982Z,93.33
2022-11-09T20:20:56.600Z,93.96
2022-11-09T20:23:59.500Z,93.80
2022-11-09T20:27:03.472Z,93.36
2022-11-09T20:30:07.160Z,94.84
2022-11-09T20:33:10.556Z,95.29
2022-11-09T20:36:13.320Z,94.41
2022-11-09T20:39:16.047Z,94.75
2022-11-09T20:42:20.039Z,95.45
2022-11-09T20:45:22.683Z,95.31
2022-11-09T20:48:52.033Z,95.22
2022-11-09T20:51:47.930Z,96.62
2022-11-09T20:54:50.641Z,95.51
2022-11-09T20:57:54.615Z,96.60
2022-11-09T21:01:02.042Z,98.08
2022-11-09T21:04:05.843Z,98.79
2022-11-09T21:07:08.824Z,98.45
2022-11-09T21:10:11.516Z,99.27
2022-11-09T21:13:16.496Z,98.82
2022-11-09T21:16:20.578Z,98.63
2022-11-09T21:19:23.476Z,99.20
2022-11-09T21:22:46.971Z,99.68
2022-11-09T21:26:06.917Z,99.63
2022-11-09T21:29:29.442Z,99.75
2022-11-09T21:32:32.086Z,100.00
2022-11-09T21:35:34.693Z,100.00
2022-11-09T21:38:37.707Z,100.00
2022-11-09T21:41:40.711Z,100.00
2022-11-09T21:44:44.764Z,100.00
2022-11-09T21:47:47.566Z,100.00
2022-11-09T21:50:50.182Z,100.00
2022-11-09T21:53:52.869Z,100.00
2022-11-09T21:56:55.908Z,100.00
2022-11-09T21:59:59.878Z,100.00
2022-11-09T22:03:03.489Z,100.00
2022-11-09T22:06:06.582Z,100.00
2022-11-09T22:09:14.114Z,100.00
2022-11-09T22:12:34.308Z,100.00
2022-11-09T22:15:55.976Z,100.00
2022-11-09T22:19:16.688Z,100.00
2022-11-09T22:22:19.321Z,100.00
2022-11-09T22:25:21.956Z,100.00
2022-11-09T22:28:24.584Z,100.00
2022-11-09T22:31:29.082Z,100.00
2022-11-09T22:34:31.695Z,100.00
2022-11-09T22:37:34.346Z,100.00
2022-11-09T22:40:36.986Z,100.00
2022-11-09T22:43:41.089Z,100.00
2022-11-09T22:46:45.049Z,100.00
2022-11-09T22:49:47.676Z,100.00
2022-11-09T22:52:53.947Z,100.00
2022-11-09T22:55:58.101Z,100.00
2022-11-09T22:59:00.721Z,100.00
2022-11-09T23:02:04.684Z,100.00
2022-11-09T23:05:08.744Z,100.00
2022-11-09T23:08:11.442Z,100.00
2022-11-09T23:11:16.230Z,99.48
2022-11-09T23:14:39.168Z,99.68
2022-11-09T23:18:00.575Z,100.00
2022-11-09T23:21:03.218Z,100.00
2022-11-09T23:24:27.848Z,100.00
2022-11-09T23:27:30.561Z,100.00
2022-11-09T23:30:33.175Z,100.00
2022-11-09T23:33:38.204Z,100.00
2022-11-09T23:36:40.817Z,100.00
2022-11-09T23:39:43.401Z,100.00
2022-11-09T23:42:46.055Z,100.00
2022-11-09T23:45:48.665Z,100.00
2022-11-09T23:48:52.673Z,100.00
2022-11-09T23:51:55.263Z,100.00
2022-11-09T23:54:57.869Z,100.00
2022-11-09T23:58:02.153Z,100.00
